createdAt,value
2023-02-02T00:02:16.819Z,99410.95
2023-02-02T00:05:14.801Z,99402.10
2023-02-02T00:08:37.386Z,99402.71
2023-02-02T00:11:15.852Z,99403.88
2023-02-02T00:14:04.364Z,99403.19
2023-02-02T00:16:52.568Z,99409.85
2023-02-02T00:19:34.850Z,99409.44
2023-02-02T00:22:39.780Z,99407.89
2023-02-02T00:25:42.439Z,99412.64
2023-02-02T00:28:44.573Z,99415.71
2023-02-02T00:32:09.648Z,99418.41
2023-02-02T00:35:52.763Z,99417.94
2023-02-02T00:38:54.306Z,99418.96
2023-02-02T00:42:57.308Z,99416.88
2023-02-02T00:46:47.433Z,99415.08
2023-02-02T00:50:12.090Z,99414.84
2023-02-02T00:53:25.566Z,99407.73
2023-02-02T00:57:45.478Z,99410.16
2023-02-02T01:01:57.974Z,99407.83
2023-02-02T01:04:01.091Z,99400.42
2023-02-02T01:14:29.971Z,99393.02
2023-02-02T01:17:27.747Z,99394.89
2023-02-02T01:21:13.744Z,99395.12
2023-02-02T01:23:54.417Z,99393.89
2023-02-02T01:29:23.072Z,99391.41
2023-02-02T01:30:41.621Z,99391.44
2023-02-02T01:33:47.507Z,99386.19
2023-02-02T01:38:05.674Z,99386.68
2023-02-02T01:40:13.815Z,99385.48
2023-02-02T01:44:48.925Z,99382.86
2023-02-02T01:48:16.322Z,99386.42
2023-02-02T01:51:43.410Z,99383.22
2023-02-02T01:55:13.767Z,99384.70
2023-02-02T01:59:00.229Z,99379.87
2023-02-02T02:03:06.172Z,99384.67
2023-02-02T02:06:25.543Z,99382.85
2023-02-02T02:10:38.335Z,99380.27
2023-02-02T02:24:57.472Z,99384.55
2023-02-02T02:28:09.833Z,99380.89
2023-02-02T02:31:25.643Z,99376.86
2023-02-02T02:35:06.395Z,99378.41
2023-02-02T02:39:12.642Z,99373.84
2023-02-02T02:42:46.519Z,99370.33
2023-02-02T02:46:08.018Z,99371.94
2023-02-02T02:52:18.019Z,99371.11
2023-02-02T02:56:24.958Z,99366.05
2023-02-02T02:59:42.022Z,99358.10
2023-02-02T03:02:41.087Z,99352.47
2023-02-02T03:06:13.286Z,99355.44
2023-02-02T03:09:47.829Z,99355.70
2023-02-02T03:13:09.413Z,99337.61
2023-02-02T03:16:08.468Z,99336.86
2023-02-02T03:19:30.474Z,99331.98
2023-02-02T03:25:41.778Z,99320.44
2023-02-02T03:29:18.469Z,99313.23
2023-02-02T03:33:04.912Z,99307.34
2023-02-02T03:37:00.582Z,99301.41
2023-02-02T03:40:14.482Z,99292.90
2023-02-02T03:47:23.968Z,99280.61
2023-02-02T03:50:42.733Z,99274.55
2023-02-02T03:53:52.922Z,99271.45
2023-02-02T03:57:16.823Z,99270.40
2023-02-02T04:00:19.293Z,99264.29
2023-02-02T04:03:18.627Z,99253.35
2023-02-02T04:06:32.806Z,99250.70
2023-02-02T04:10:06.690Z,99248.55
2023-02-02T04:13:18.378Z,99251.90
2023-02-02T04:16:47.696Z,99248.21
2023-02-02T04:19:53.848Z,99247.86
2023-02-02T04:23:35.431Z,99247.17
2023-02-02T04:30:25.568Z,99242.37
2023-02-02T04:33:11.493Z,99231.64
2023-02-02T04:39:51.785Z,99225.11
2023-02-02T04:42:59.145Z,99226.17
2023-02-02T04:45:57.794Z,99225.89
2023-02-02T04:49:01.525Z,99230.52
2023-02-02T04:51:55.549Z,99225.70
2023-02-02T04:54:50.131Z,99210.96
2023-02-02T04:57:54.169Z,99202.80
2023-02-02T05:02:00.215Z,99199.05
2023-02-02T05:05:33.122Z,99203.35
2023-02-02T05:08:34.902Z,99205.91
2023-02-02T05:12:00.564Z,99208.32
2023-02-02T05:15:21.470Z,99212.11
2023-02-02T05:18:30.037Z,99209.04
2023-02-02T05:22:57.895Z,99203.02
2023-02-02T05:24:40.732Z,99198.40
2023-02-02T05:33:29.392Z,99194.95
2023-02-02T05:44:17.592Z,99192.94
2023-02-02T05:53:06.112Z,99194.79
2023-02-02T05:57:16.905Z,99190.25
2023-02-02T06:01:01.672Z,99186.59
2023-02-02T06:04:33.383Z,99189.77
2023-02-02T06:36:07.212Z,99213.83
2023-02-02T06:58:47.923Z,99239.55
2023-02-02T07:02:43.493Z,99253.90
2023-02-02T07:05:31.708Z,99261.64
2023-02-02T07:13:04.348Z,99269.82
2023-02-02T07:16:52.933Z,99289.15
2023-02-02T07:19:59.528Z,99300.42
2023-02-02T07:34:17.100Z,99331.94
2023-02-02T07:40:25.993Z,99347.14
2023-02-02T07:46:48.369Z,99359.55
2023-02-02T07:49:48.675Z,99363.88
2023-02-02T07:53:05.764Z,99365.31
2023-02-02T07:56:43.466Z,99378.03
2023-02-02T07:59:57.200Z,99382.27
2023-02-02T08:02:44.609Z,99390.27
2023-02-02T08:05:24.471Z,99394.13
2023-02-02T08:08:05.938Z,99405.63
2023-02-02T08:10:42.642Z,99415.53
2023-02-02T08:13:54.343Z,99421.09
2023-02-02T08:17:47.022Z,99432.92
2023-02-02T08:21:27.382Z,99439.86
2023-02-02T08:24:29.573Z,99455.14
2023-02-02T08:27:11.077Z,99470.43
2023-02-02T08:29:45.556Z,99478.62
2023-02-02T08:32:26.379Z,99481.46
2023-02-02T08:35:45.541Z,99492.48
2023-02-02T08:38:52.251Z,99497.17
2023-02-02T08:41:58.919Z,99505.24
2023-02-02T08:46:12.725Z,99511.60
2023-02-02T08:48:45.033Z,99523.30
2023-02-02T08:51:49.139Z,99530.67
2023-02-02T08:55:36.983Z,99537.48
2023-02-02T09:01:42.977Z,99551.92
2023-02-02T09:04:41.556Z,99565.20
2023-02-02T09:07:26.257Z,99569.98
2023-02-02T09:10:46.553Z,99579.90
2023-02-02T09:13:52.303Z,99582.39
2023-02-02T09:17:06.292Z,99590.48
2023-02-02T09:19:58.291Z,99594.72
2023-02-02T09:22:46.477Z,99604.44
2023-02-02T09:25:37.476Z,99609.74
2023-02-02T09:28:20.113Z,99617.30
2023-02-02T09:31:24.632Z,99618.61
2023-02-02T09:34:11.319Z,99624.83
2023-02-02T09:36:55.250Z,99629.63
2023-02-02T09:39:36.429Z,99631.00
2023-02-02T09:42:57.592Z,99639.15
2023-02-02T09:46:03.837Z,99646.69
2023-02-02T09:49:00.109Z,99653.83
2023-02-02T09:51:48.969Z,99664.73
2023-02-02T09:54:41.690Z,99665.39
2023-02-02T09:57:39.392Z,99674.11
2023-02-02T10:00:46.432Z,99680.80
2023-02-02T10:03:41.407Z,99689.86
2023-02-02T10:06:28.547Z,99691.92
2023-02-02T10:09:13.631Z,99695.41
2023-02-02T10:12:05.231Z,99701.61
2023-02-02T10:14:56.560Z,99699.70
2023-02-02T10:18:50.085Z,99711.48
2023-02-02T10:22:23.439Z,99720.93
2023-02-02T10:24:58.165Z,99729.52
2023-02-02T10:28:18.949Z,99728.91
2023-02-02T10:32:07.692Z,99733.91
2023-02-02T10:40:15.889Z,99753.48
2023-02-02T10:43:44.512Z,99763.48
2023-02-02T10:46:55.670Z,99771.02
2023-02-02T10:49:42.573Z,99776.88
2023-02-02T10:53:02.749Z,99778.73
2023-02-02T10:56:32.457Z,99785.06
2023-02-02T10:59:31.337Z,99787.05
2023-02-02T11:02:20.983Z,99795.90
2023-02-02T11:05:09.927Z,99798.56
2023-02-02T11:07:48.222Z,99799.00
2023-02-02T11:10:28.053Z,99805.77
2023-02-02T11:13:02.352Z,99802.27
2023-02-02T11:15:48.945Z,99811.53
2023-02-02T11:18:56.150Z,99817.58
2023-02-02T11:21:40.126Z,99825.50
2023-02-02T11:25:14.669Z,99825.85
2023-02-02T11:31:40.312Z,99831.42
2023-02-02T11:35:51.720Z,99836.75
2023-02-02T12:09:32.427Z,99886.35
2023-02-02T12:13:19.850Z,99891.90
2023-02-02T12:17:01.302Z,99900.00
2023-02-02T13:09:45.800Z,99957.38
2023-02-02T13:37:09.992Z,100008.45
2023-02-02T14:23:46.897Z,100093.11
2023-02-02T14:35:49.578Z,100122.11
2023-02-02T14:42:46.848Z,100132.55
2023-02-02T14:45:28.297Z,100137.94
2023-02-02T14:48:11.066Z,100140.23
2023-02-02T14:50:59.836Z,100147.82
2023-02-02T14:53:56.135Z,100150.95
2023-02-02T14:56:57.880Z,100163.75
2023-02-02T14:59:48.437Z,100169.66
2023-02-02T15:02:39.333Z,100177.63
2023-02-02T15:06:13.975Z,100182.89
2023-02-02T15:09:43.230Z,100191.61
2023-02-02T15:12:46.720Z,100200.30
2023-02-02T15:15:34.845Z,100203.73
2023-02-02T15:18:40.865Z,100211.32
2023-02-02T15:21:23.025Z,100217.39
2023-02-02T15:24:11.985Z,100225.48
2023-02-02T15:27:08.834Z,100233.06
2023-02-02T15:29:45.535Z,100238.25
2023-02-02T15:32:25.823Z,100241.70
2023-02-02T15:35:23.780Z,100248.77
2023-02-02T15:38:06.790Z,100258.77
2023-02-02T15:40:40.986Z,100263.64
2023-02-02T15:43:13.743Z,100270.52
2023-02-02T15:46:32.912Z,100281.18
2023-02-02T15:49:34.737Z,100288.27
2023-02-02T15:52:35.340Z,100296.02
2023-02-02T15:55:38.515Z,100300.90
2023-02-02T15:58:55.657Z,100308.14
2023-02-02T16:01:56.760Z,100315.20
2023-02-02T16:04:49.580Z,100327.91
2023-02-02T16:08:05.060Z,100339.41
2023-02-02T16:10:53.422Z,100353.36
2023-02-02T16:13:32.718Z,100362.98
2023-02-02T16:16:24.127Z,100374.68
2023-02-02T16:19:32.179Z,100387.15
2023-02-02T16:22:15.177Z,100395.30
2023-02-02T16:25:02.239Z,100404.81
2023-02-02T16:27:39.624Z,100409.81
2023-02-02T16:30:53.966Z,100411.20
2023-02-02T16:33:38.821Z,100423.27
2023-02-02T16:37:07.152Z,100426.04
2023-02-02T16:40:19.602Z,100436.59
2023-02-02T16:42:48.053Z,100441.92
2023-02-02T16:45:49.221Z,100451.36
2023-02-02T16:48:37.521Z,100455.81
2023-02-02T16:51:37.892Z,100463.91
2023-02-02T16:55:50.486Z,100475.43
2023-02-02T16:58:57.646Z,100483.52
2023-02-02T17:01:42.467Z,100493.65
2023-02-02T17:04:44.297Z,100497.40
2023-02-02T17:12:42.581Z,100517.36
2023-02-02T17:15:18.842Z,100529.05
2023-02-02T17:18:19.570Z,100535.75
2023-02-02T17:20:47.974Z,100542.63
2023-02-02T17:23:22.936Z,100549.51
2023-02-02T17:25:57.138Z,100558.80
2023-02-02T17:28:39.570Z,100564.99
2023-02-02T17:31:15.274Z,100571.88
2023-02-02T17:33:48.587Z,100586.13
2023-02-02T17:36:25.668Z,100586.81
2023-02-02T17:39:04.553Z,100588.19
2023-02-02T17:41:38.929Z,100593.17
2023-02-02T17:48:33.560Z,100610.34
2023-02-02T17:51:07.989Z,100621.50
2023-02-02T17:53:50.723Z,100630.09
2023-02-02T17:56:26.881Z,100630.95
2023-02-02T17:58:56.078Z,100632.32
2023-02-02T18:01:30.877Z,100634.20
2023-02-02T18:04:20.228Z,100642.98
2023-02-02T18:06:52.874Z,100649.67
2023-02-02T18:09:26.496Z,100656.70
2023-02-02T18:12:02.168Z,100662.89
2023-02-02T18:14:38.087Z,100667.18
2023-02-02T18:17:18.680Z,100670.98
2023-02-02T18:20:38.267Z,100676.80
2023-02-02T18:23:09.223Z,100683.50
2023-02-02T18:25:51.672Z,100691.75
2023-02-02T18:28:30.632Z,100693.81
2023-02-02T18:31:27.799Z,100699.48
2023-02-02T18:34:13.637Z,100705.66
2023-02-02T18:36:48.339Z,100714.93
2023-02-02T18:40:03.266Z,100720.95
2023-02-02T18:42:52.149Z,100726.97
2023-02-02T18:45:31.259Z,100734.54
2023-02-02T18:48:03.920Z,100743.64
2023-02-02T18:50:38.456Z,100751.02
2023-02-02T18:53:12.151Z,100754.63
2023-02-02T18:55:53.442Z,100758.05
2023-02-02T18:58:46.544Z,100762.34
2023-02-02T19:01:18.670Z,100766.80
2023-02-02T19:03:54.739Z,100772.47
2023-02-02T19:06:58.503Z,100780.55
2023-02-02T19:09:32.206Z,100784.47
2023-02-02T19:12:12.052Z,100787.38
2023-02-02T19:14:50.362Z,100787.37
2023-02-02T19:17:30.267Z,100793.37
2023-02-02T19:20:26.713Z,100795.92
2023-02-02T19:23:09.983Z,100803.31
2023-02-02T19:25:51.146Z,100809.64
2023-02-02T19:28:31.240Z,100818.72
2023-02-02T19:31:05.223Z,100819.76
2023-02-02T19:33:52.470Z,100820.28
2023-02-02T19:36:54.287Z,100826.46
2023-02-02T19:39:36.419Z,100837.78
2023-02-02T19:42:11.734Z,100842.58
2023-02-02T19:44:44.464Z,100845.49
2023-02-02T19:47:36.767Z,100849.80
2023-02-02T19:50:21.347Z,100851.88
2023-02-02T19:52:56.242Z,100852.56
2023-02-02T19:55:47.030Z,100861.13
2023-02-02T19:58:52.749Z,100873.68
2023-02-02T20:01:37.247Z,100876.77
2023-02-02T20:04:17.738Z,100881.75
2023-02-02T20:06:58.911Z,100881.22
2023-02-02T20:09:34.836Z,100880.18
2023-02-02T20:12:28.173Z,100881.73
2023-02-02T20:15:02.105Z,100885.52
2023-02-02T20:17:34.451Z,100889.98
2023-02-02T20:20:39.135Z,100889.11
2023-02-02T20:24:03.237Z,100895.13
2023-02-02T20:26:52.922Z,100903.52
2023-02-02T20:29:44.924Z,100903.87
2023-02-02T20:32:43.070Z,100905.37
2023-02-02T20:35:34.008Z,100913.11
2023-02-02T20:38:29.620Z,100922.92
2023-02-02T20:40:59.380Z,100926.87
2023-02-02T20:43:35.071Z,100930.48
2023-02-02T20:46:15.726Z,100938.90
2023-02-02T20:48:47.436Z,100940.44
2023-02-02T20:51:16.560Z,100937.55
2023-02-02T20:53:48.233Z,100936.08
2023-02-02T20:56:24.727Z,100938.33
2023-02-02T20:59:00.973Z,100938.63
2023-02-02T21:01:55.400Z,100939.65
2023-02-02T21:04:36.144Z,100947.36
2023-02-02T21:07:25.959Z,100948.22
2023-02-02T21:09:57.502Z,100950.27
2023-02-02T21:12:27.013Z,100956.46
2023-02-02T21:15:26.318Z,100962.83
2023-02-02T21:18:10.572Z,100969.33
2023-02-02T21:20:47.307Z,100970.52
2023-02-02T21:23:19.831Z,100977.73
2023-02-02T21:25:48.942Z,100983.73
2023-02-02T21:28:25.846Z,100989.40
2023-02-02T21:30:58.425Z,100988.86
2023-02-02T21:33:27.561Z,100989.38
2023-02-02T21:36:46.688Z,100989.54
2023-02-02T21:39:27.682Z,100990.35
2023-02-02T21:42:12.748Z,101000.63
2023-02-02T21:45:25.790Z,101006.44
2023-02-02T21:47:58.631Z,101002.98
2023-02-02T21:50:54.366Z,101001.91
2023-02-02T21:53:25.740Z,101005.48
2023-02-02T21:55:58.208Z,101006.84
2023-02-02T21:58:39.385Z,101007.36
2023-02-02T22:01:36.543Z,101009.76
2023-02-02T22:04:28.576Z,101010.29
2023-02-02T22:07:12.542Z,101010.09
2023-02-02T22:09:45.437Z,101006.98
2023-02-02T22:12:21.468Z,101001.98
2023-02-02T22:14:55.728Z,100998.18
2023-02-02T22:17:39.370Z,100997.30
2023-02-02T22:20:22.249Z,100992.43
2023-02-02T22:22:54.212Z,100995.98
2023-02-02T22:25:37.260Z,100999.70
2023-02-02T22:28:42.845Z,101002.73
2023-02-02T22:31:13.003Z,101008.00
2023-02-02T22:33:45.434Z,101006.42
2023-02-02T22:36:13.961Z,101008.62
2023-02-02T22:38:45.740Z,101014.17
2023-02-02T22:41:14.080Z,101021.20
2023-02-02T22:43:44.605Z,101025.67
2023-02-02T22:46:13.492Z,101022.45
2023-02-02T22:48:42.383Z,101023.52
2023-02-02T22:51:11.517Z,101026.79
2023-02-02T22:53:42.820Z,101019.21
2023-02-02T22:56:12.173Z,101026.70
2023-02-02T22:58:45.064Z,101034.10
2023-02-02T23:01:17.550Z,101034.70
2023-02-02T23:03:49.311Z,101038.90
2023-02-02T23:06:18.225Z,101039.33
2023-02-02T23:08:47.137Z,101042.17
2023-02-02T23:11:16.623Z,101037.48
2023-02-02T23:13:45.408Z,101034.17
2023-02-02T23:16:13.909Z,101037.08
2023-02-02T23:18:42.378Z,101038.41
2023-02-02T23:21:11.187Z,101037.70
2023-02-02T23:23:39.938Z,101035.79
2023-02-02T23:26:08.819Z,101033.21
2023-02-02T23:28:40.691Z,101035.80
2023-02-02T23:31:09.450Z,101039.93
2023-02-02T23:33:40.608Z,101041.66
2023-02-02T23:36:09.320Z,101041.80
2023-02-02T23:38:37.893Z,101044.20
2023-02-02T23:41:06.678Z,101048.95
2023-02-02T23:43:37.037Z,101050.63
2023-02-02T23:46:08.952Z,101055.02
2023-02-02T23:48:43.532Z,101053.28
2023-02-02T23:51:25.023Z,101053.90
2023-02-02T23:53:55.499Z,101056.20
2023-02-02T23:56:40.689Z,101059.33
2023-02-02T23:59:11.639Z,101064.02
